sensor_id;sensor_type;location;lat;lon;timestamp;P1;durP1;ratioP1;P2;durP2;ratioP2
51459;SDS011;37534;39.772;2.718;2023-03-01T00:00:41;31.52;;;4.72;;
51459;SDS011;37534;39.772;2.718;2023-03-01T00:03:11;25.25;;;6.97;;
51459;SDS011;37534;39.772;2.718;2023-03-01T00:05:43;16.95;;;7.60;;
51459;SDS011;37534;39.772;2.718;2023-03-01T00:08:09;18.75;;;7.30;;
51459;SDS011;37534;39.772;2.718;2023-03-01T00:10:34;22.23;;;7.38;;
51459;SDS011;37534;39.772;2.718;2023-03-01T00:13:01;19.88;;;8.98;;
51459;SDS011;37534;39.772;2.718;2023-03-01T00:15:29;28.27;;;10.63;;
51459;SDS011;37534;39.772;2.718;2023-03-01T00:17:54;19.23;;;8.98;;
51459;SDS011;37534;39.772;2.718;2023-03-01T00:20:20;17.70;;;9.35;;
51459;SDS011;37534;39.772;2.718;2023-03-01T00:22:45;28.77;;;9.73;;
51459;SDS011;37534;39.772;2.718;2023-03-01T00:25:11;45.58;;;9.25;;
51459;SDS011;37534;39.772;2.718;2023-03-01T00:27:36;17.85;;;8.40;;
51459;SDS011;37534;39.772;2.718;2023-03-01T00:30:02;14.00;;;9.88;;
51459;SDS011;37534;39.772;2.718;2023-03-01T00:32:28;14.73;;;9.90;;
51459;SDS011;37534;39.772;2.718;2023-03-01T00:34:54;13.40;;;8.85;;
51459;SDS011;37534;39.772;2.718;2023-03-01T00:37:20;18.73;;;9.23;;
51459;SDS011;37534;39.772;2.718;2023-03-01T00:39:46;24.85;;;7.20;;
51459;SDS011;37534;39.772;2.718;2023-03-01T00:42:12;16.83;;;6.88;;
51459;SDS011;37534;39.772;2.718;2023-03-01T00:44:38;37.83;;;22.27;;
51459;SDS011;37534;39.772;2.718;2023-03-01T00:47:03;50.78;;;33.30;;
51459;SDS011;37534;39.772;2.718;2023-03-01T00:49:29;23.65;;;13.35;;
51459;SDS011;37534;39.772;2.718;2023-03-01T00:51:55;16.42;;;9.68;;
51459;SDS011;37534;39.772;2.718;2023-03-01T00:54:20;11.80;;;4.38;;
51459;SDS011;37534;39.772;2.718;2023-03-01T00:56:46;10.68;;;3.17;;
51459;SDS011;37534;39.772;2.718;2023-03-01T00:59:11;11.13;;;3.72;;
51459;SDS011;37534;39.772;2.718;2023-03-01T01:01:37;8.48;;;3.13;;
51459;SDS011;37534;39.772;2.718;2023-03-01T01:04:04;8.18;;;2.97;;
51459;SDS011;37534;39.772;2.718;2023-03-01T01:06:33;8.50;;;4.18;;
51459;SDS011;37534;39.772;2.718;2023-03-01T01:09:01;25.98;;;6.57;;
51459;SDS011;37534;39.772;2.718;2023-03-01T01:11:28;10.20;;;4.38;;
51459;SDS011;37534;39.772;2.718;2023-03-01T01:13:54;14.00;;;5.43;;
51459;SDS011;37534;39.772;2.718;2023-03-01T01:16:22;9.50;;;4.00;;
51459;SDS011;37534;39.772;2.718;2023-03-01T01:18:49;7.93;;;5.22;;
51459;SDS011;37534;39.772;2.718;2023-03-01T01:21:16;11.75;;;7.70;;
51459;SDS011;37534;39.772;2.718;2023-03-01T01:23:44;24.17;;;11.73;;
51459;SDS011;37534;39.772;2.718;2023-03-01T01:26:13;11.52;;;7.05;;
51459;SDS011;37534;39.772;2.718;2023-03-01T01:28:43;11.13;;;5.05;;
51459;SDS011;37534;39.772;2.718;2023-03-01T01:31:09;8.18;;;3.90;;
51459;SDS011;37534;39.772;2.718;2023-03-01T01:33:34;14.77;;;5.55;;
51459;SDS011;37534;39.772;2.718;2023-03-01T01:36:00;7.13;;;3.58;;
51459;SDS011;37534;39.772;2.718;2023-03-01T01:38:26;20.70;;;10.80;;
51459;SDS011;37534;39.772;2.718;2023-03-01T01:40:52;18.60;;;6.50;;
51459;SDS011;37534;39.772;2.718;2023-03-01T01:43:22;19.63;;;7.65;;
51459;SDS011;37534;39.772;2.718;2023-03-01T01:45:50;15.50;;;9.13;;
51459;SDS011;37534;39.772;2.718;2023-03-01T01:48:19;12.43;;;4.93;;
51459;SDS011;37534;39.772;2.718;2023-03-01T01:50:50;20.52;;;5.60;;
51459;SDS011;37534;39.772;2.718;2023-03-01T01:53:22;10.77;;;6.15;;
51459;SDS011;37534;39.772;2.718;2023-03-01T01:55:51;14.48;;;4.78;;
51459;SDS011;37534;39.772;2.718;2023-03-01T02:00:49;18.70;;;6.63;;
51459;SDS011;37534;39.772;2.718;2023-03-01T02:03:17;9.65;;;6.38;;
51459;SDS011;37534;39.772;2.718;2023-03-01T02:08:15;12.38;;;4.82;;
51459;SDS011;37534;39.772;2.718;2023-03-01T02:10:44;7.72;;;3.80;;
51459;SDS011;37534;39.772;2.718;2023-03-01T02:13:11;13.00;;;5.63;;
51459;SDS011;37534;39.772;2.718;2023-03-01T02:15:38;20.52;;;5.13;;
51459;SDS011;37534;39.772;2.718;2023-03-01T02:18:05;6.68;;;4.38;;
51459;SDS011;37534;39.772;2.718;2023-03-01T02:23:21;10.18;;;4.63;;
51459;SDS011;37534;39.772;2.718;2023-03-01T02:28:24;14.02;;;4.65;;
51459;SDS011;37534;39.772;2.718;2023-03-01T02:30:51;10.15;;;3.72;;
51459;SDS011;37534;39.772;2.718;2023-03-01T02:33:37;8.52;;;3.88;;
51459;SDS011;37534;39.772;2.718;2023-03-01T02:36:06;11.10;;;5.20;;
51459;SDS011;37534;39.772;2.718;2023-03-01T02:38:36;27.58;;;4.78;;
51459;SDS011;37534;39.772;2.718;2023-03-01T02:41:02;8.90;;;4.10;;
51459;SDS011;37534;39.772;2.718;2023-03-01T02:43:31;6.32;;;3.97;;
51459;SDS011;37534;39.772;2.718;2023-03-01T02:45:59;10.05;;;4.10;;
51459;SDS011;37534;39.772;2.718;2023-03-01T02:48:38;18.90;;;4.90;;
51459;SDS011;37534;39.772;2.718;2023-03-01T12:38:17;1.80;;;1.48;;
51459;SDS011;37534;39.772;2.718;2023-03-01T12:41:01;2.38;;;1.83;;
51459;SDS011;37534;39.772;2.718;2023-03-01T12:49:38;3.63;;;1.42;;
51459;SDS011;37534;39.772;2.718;2023-03-01T12:55:24;3.50;;;2.35;;
51459;SDS011;37534;39.772;2.718;2023-03-01T12:57:55;2.45;;;1.73;;
51459;SDS011;37534;39.772;2.718;2023-03-01T13:00:31;3.15;;;1.20;;
51459;SDS011;37534;39.772;2.718;2023-03-01T13:08:46;2.78;;;1.77;;
51459;SDS011;37534;39.772;2.718;2023-03-01T13:11:19;3.10;;;2.10;;
51459;SDS011;37534;39.772;2.718;2023-03-01T13:13:47;4.88;;;2.15;;
51459;SDS011;37534;39.772;2.718;2023-03-01T13:16:21;2.63;;;1.95;;
51459;SDS011;37534;39.772;2.718;2023-03-01T13:19:05;8.25;;;2.03;;
51459;SDS011;37534;39.772;2.718;2023-03-01T13:21:36;4.38;;;2.03;;
51459;SDS011;37534;39.772;2.718;2023-03-01T13:24:02;2.90;;;2.58;;
51459;SDS011;37534;39.772;2.718;2023-03-01T13:26:28;3.38;;;1.55;;
51459;SDS011;37534;39.772;2.718;2023-03-01T13:28:54;3.33;;;1.52;;
51459;SDS011;37534;39.772;2.718;2023-03-01T13:33:54;3.92;;;2.05;;
51459;SDS011;37534;39.772;2.718;2023-03-01T13:39:25;3.45;;;1.65;;
51459;SDS011;37534;39.772;2.718;2023-03-01T13:42:03;3.45;;;2.60;;
51459;SDS011;37534;39.772;2.718;2023-03-01T13:44:49;7.13;;;1.75;;
51459;SDS011;37534;39.772;2.718;2023-03-01T13:47:16;6.22;;;2.47;;
51459;SDS011;37534;39.772;2.718;2023-03-01T13:49:45;6.30;;;3.25;;
51459;SDS011;37534;39.772;2.718;2023-03-01T13:54:52;4.55;;;2.10;;
51459;SDS011;37534;39.772;2.718;2023-03-01T13:57:22;4.65;;;2.20;;
51459;SDS011;37534;39.772;2.718;2023-03-01T13:59:53;8.48;;;2.75;;
51459;SDS011;37534;39.772;2.718;2023-03-01T14:02:19;3.13;;;2.65;;
51459;SDS011;37534;39.772;2.718;2023-03-01T14:04:46;5.30;;;2.80;;
51459;SDS011;37534;39.772;2.718;2023-03-01T14:07:22;4.72;;;2.05;;
51459;SDS011;37534;39.772;2.718;2023-03-01T14:09:55;7.00;;;2.25;;
51459;SDS011;37534;39.772;2.718;2023-03-01T14:12:33;3.10;;;1.80;;
51459;SDS011;37534;39.772;2.718;2023-03-01T14:20:39;3.65;;;2.97;;
51459;SDS011;37534;39.772;2.718;2023-03-01T14:23:18;2.97;;;1.98;;
51459;SDS011;37534;39.772;2.718;2023-03-01T14:25:50;3.53;;;1.50;;
51459;SDS011;37534;39.772;2.718;2023-03-01T14:28:19;3.08;;;1.50;;
51459;SDS011;37534;39.772;2.718;2023-03-01T14:30:48;2.92;;;1.55;;
51459;SDS011;37534;39.772;2.718;2023-03-01T14:33:37;2.67;;;1.77;;
51459;SDS011;37534;39.772;2.718;2023-03-01T14:36:11;3.38;;;2.20;;
51459;SDS011;37534;39.772;2.718;2023-03-01T14:38:39;3.17;;;2.05;;
51459;SDS011;37534;39.772;2.718;2023-03-01T14:41:11;4.47;;;2.42;;
51459;SDS011;37534;39.772;2.718;2023-03-01T14:44:02;4.90;;;2.05;;
51459;SDS011;37534;39.772;2.718;2023-03-01T14:49:11;2.83;;;2.13;;
51459;SDS011;37534;39.772;2.718;2023-03-01T14:51:41;4.25;;;2.47;;
51459;SDS011;37534;39.772;2.718;2023-03-01T14:54:56;3.23;;;1.33;;
51459;SDS011;37534;39.772;2.718;2023-03-01T14:57:05;6.88;;;2.38;;
51459;SDS011;37534;39.772;2.718;2023-03-01T14:59:44;11.45;;;2.35;;
51459;SDS011;37534;39.772;2.718;2023-03-01T15:02:21;7.20;;;2.30;;
51459;SDS011;37534;39.772;2.718;2023-03-01T15:04:50;7.15;;;1.60;;
51459;SDS011;37534;39.772;2.718;2023-03-01T15:07:17;4.00;;;2.47;;
51459;SDS011;37534;39.772;2.718;2023-03-01T15:09:44;3.13;;;1.80;;
51459;SDS011;37534;39.772;2.718;2023-03-01T15:18:15;3.20;;;1.90;;
51459;SDS011;37534;39.772;2.718;2023-03-01T15:20:42;3.22;;;1.83;;
51459;SDS011;37534;39.772;2.718;2023-03-01T15:23:17;6.43;;;4.15;;
51459;SDS011;37534;39.772;2.718;2023-03-01T15:25:46;15.18;;;2.63;;
51459;SDS011;37534;39.772;2.718;2023-03-01T15:28:17;3.97;;;2.03;;
51459;SDS011;37534;39.772;2.718;2023-03-01T15:30:45;4.18;;;2.35;;
51459;SDS011;37534;39.772;2.718;2023-03-01T15:33:19;2.22;;;1.67;;
51459;SDS011;37534;39.772;2.718;2023-03-01T15:35:53;16.30;;;7.78;;
51459;SDS011;37534;39.772;2.718;2023-03-01T15:38:30;14.48;;;9.10;;
51459;SDS011;37534;39.772;2.718;2023-03-01T15:41:00;13.35;;;6.65;;
51459;SDS011;37534;39.772;2.718;2023-03-01T15:43:38;12.75;;;8.38;;
51459;SDS011;37534;39.772;2.718;2023-03-01T15:46:13;7.38;;;4.47;;
51459;SDS011;37534;39.772;2.718;2023-03-01T15:48:51;9.80;;;5.28;;
51459;SDS011;37534;39.772;2.718;2023-03-01T15:51:27;21.15;;;2.97;;
51459;SDS011;37534;39.772;2.718;2023-03-01T15:53:57;6.07;;;3.63;;
51459;SDS011;37534;39.772;2.718;2023-03-01T15:56:25;6.95;;;4.60;;
51459;SDS011;37534;39.772;2.718;2023-03-01T15:58:50;19.65;;;8.30;;
51459;SDS011;37534;39.772;2.718;2023-03-01T16:01:16;14.38;;;7.72;;
51459;SDS011;37534;39.772;2.718;2023-03-01T16:03:42;21.85;;;13.05;;
51459;SDS011;37534;39.772;2.718;2023-03-01T16:06:09;17.05;;;9.73;;
51459;SDS011;37534;39.772;2.718;2023-03-01T16:08:36;13.43;;;5.70;;
51459;SDS011;37534;39.772;2.718;2023-03-01T16:11:03;6.97;;;3.95;;
51459;SDS011;37534;39.772;2.718;2023-03-01T16:13:36;8.57;;;5.13;;
51459;SDS011;37534;39.772;2.718;2023-03-01T16:16:02;10.38;;;6.88;;
51459;SDS011;37534;39.772;2.718;2023-03-01T16:18:27;7.32;;;3.53;;
51459;SDS011;37534;39.772;2.718;2023-03-01T16:20:53;8.73;;;6.47;;
51459;SDS011;37534;39.772;2.718;2023-03-01T16:23:19;11.50;;;7.30;;
51459;SDS011;37534;39.772;2.718;2023-03-01T16:25:46;10.82;;;5.95;;
51459;SDS011;37534;39.772;2.718;2023-03-01T16:28:11;9.65;;;5.47;;
51459;SDS011;37534;39.772;2.718;2023-03-01T16:30:39;7.40;;;5.05;;
51459;SDS011;37534;39.772;2.718;2023-03-01T16:33:05;10.15;;;5.95;;
51459;SDS011;37534;39.772;2.718;2023-03-01T16:35:33;16.60;;;5.47;;
51459;SDS011;37534;39.772;2.718;2023-03-01T16:37:59;9.13;;;5.97;;
51459;SDS011;37534;39.772;2.718;2023-03-01T16:40:26;6.00;;;4.45;;
51459;SDS011;37534;39.772;2.718;2023-03-01T16:42:53;17.05;;;12.65;;
51459;SDS011;37534;39.772;2.718;2023-03-01T16:45:24;13.43;;;8.27;;
51459;SDS011;37534;39.772;2.718;2023-03-01T16:47:51;11.10;;;5.72;;
51459;SDS011;37534;39.772;2.718;2023-03-01T16:50:17;11.00;;;7.30;;
51459;SDS011;37534;39.772;2.718;2023-03-01T16:52:45;16.25;;;10.77;;
51459;SDS011;37534;39.772;2.718;2023-03-01T16:55:10;7.65;;;6.60;;
51459;SDS011;37534;39.772;2.718;2023-03-01T16:57:37;9.80;;;5.30;;
51459;SDS011;37534;39.772;2.718;2023-03-01T17:00:04;7.10;;;4.93;;
51459;SDS011;37534;39.772;2.718;2023-03-01T17:02:33;14.70;;;8.63;;
51459;SDS011;37534;39.772;2.718;2023-03-01T17:04:59;21.92;;;15.80;;
51459;SDS011;37534;39.772;2.718;2023-03-01T17:07:25;24.35;;;20.40;;
51459;SDS011;37534;39.772;2.718;2023-03-01T17:09:50;37.25;;;27.02;;
51459;SDS011;37534;39.772;2.718;2023-03-01T17:12:16;20.65;;;18.13;;
51459;SDS011;37534;39.772;2.718;2023-03-01T17:14:41;22.00;;;16.10;;
51459;SDS011;37534;39.772;2.718;2023-03-01T17:17:08;35.30;;;22.40;;
51459;SDS011;37534;39.772;2.718;2023-03-01T17:19:35;42.05;;;29.45;;
51459;SDS011;37534;39.772;2.718;2023-03-01T17:22:05;57.47;;;41.03;;
51459;SDS011;37534;39.772;2.718;2023-03-01T17:24:34;124.97;;;75.43;;
51459;SDS011;37534;39.772;2.718;2023-03-01T17:27:01;88.70;;;57.33;;
51459;SDS011;37534;39.772;2.718;2023-03-01T17:29:27;32.17;;;25.10;;
51459;SDS011;37534;39.772;2.718;2023-03-01T17:31:53;64.13;;;43.65;;
51459;SDS011;37534;39.772;2.718;2023-03-01T17:34:20;25.23;;;20.17;;
51459;SDS011;37534;39.772;2.718;2023-03-01T17:36:47;28.63;;;16.83;;
51459;SDS011;37534;39.772;2.718;2023-03-01T17:39:14;74.88;;;51.00;;
51459;SDS011;37534;39.772;2.718;2023-03-01T17:41:41;23.13;;;15.13;;
51459;SDS011;37534;39.772;2.718;2023-03-01T17:44:06;31.40;;;25.73;;
51459;SDS011;37534;39.772;2.718;2023-03-01T17:46:32;16.13;;;10.15;;
51459;SDS011;37534;39.772;2.718;2023-03-01T17:48:58;31.65;;;10.50;;
51459;SDS011;37534;39.772;2.718;2023-03-01T17:51:24;26.70;;;18.48;;
51459;SDS011;37534;39.772;2.718;2023-03-01T17:53:49;39.72;;;31.88;;
51459;SDS011;37534;39.772;2.718;2023-03-01T17:56:15;23.55;;;17.38;;
51459;SDS011;37534;39.772;2.718;2023-03-01T17:58:40;32.97;;;23.70;;
51459;SDS011;37534;39.772;2.718;2023-03-01T18:01:27;17.77;;;15.25;;
51459;SDS011;37534;39.772;2.718;2023-03-01T18:03:52;52.78;;;41.92;;
51459;SDS011;37534;39.772;2.718;2023-03-01T18:06:19;12.93;;;11.35;;
51459;SDS011;37534;39.772;2.718;2023-03-01T18:08:46;21.75;;;13.88;;
51459;SDS011;37534;39.772;2.718;2023-03-01T18:11:14;15.10;;;11.82;;
51459;SDS011;37534;39.772;2.718;2023-03-01T18:13:41;24.95;;;18.50;;
51459;SDS011;37534;39.772;2.718;2023-03-01T18:16:07;25.83;;;17.42;;
51459;SDS011;37534;39.772;2.718;2023-03-01T18:18:38;15.23;;;11.38;;
51459;SDS011;37534;39.772;2.718;2023-03-01T18:21:04;34.97;;;24.50;;
51459;SDS011;37534;39.772;2.718;2023-03-01T18:23:31;25.92;;;22.23;;
51459;SDS011;37534;39.772;2.718;2023-03-01T18:25:58;53.45;;;38.95;;
51459;SDS011;37534;39.772;2.718;2023-03-01T18:28:25;52.00;;;37.90;;
51459;SDS011;37534;39.772;2.718;2023-03-01T18:33:24;46.35;;;36.17;;
51459;SDS011;37534;39.772;2.718;2023-03-01T18:35:50;45.53;;;32.20;;
51459;SDS011;37534;39.772;2.718;2023-03-01T18:38:16;51.78;;;39.42;;
51459;SDS011;37534;39.772;2.718;2023-03-01T18:40:42;48.97;;;36.83;;
51459;SDS011;37534;39.772;2.718;2023-03-01T18:43:08;51.28;;;32.85;;
51459;SDS011;37534;39.772;2.718;2023-03-01T18:45:35;34.60;;;28.17;;
51459;SDS011;37534;39.772;2.718;2023-03-01T18:48:01;35.20;;;25.90;;
51459;SDS011;37534;39.772;2.718;2023-03-01T18:50:27;33.17;;;19.45;;
51459;SDS011;37534;39.772;2.718;2023-03-01T18:52:53;30.92;;;24.23;;
51459;SDS011;37534;39.772;2.718;2023-03-01T18:55:19;28.40;;;21.42;;
51459;SDS011;37534;39.772;2.718;2023-03-01T18:57:45;27.02;;;20.55;;
51459;SDS011;37534;39.772;2.718;2023-03-01T19:00:10;25.65;;;21.33;;
51459;SDS011;37534;39.772;2.718;2023-03-01T19:02:37;24.15;;;18.50;;
51459;SDS011;37534;39.772;2.718;2023-03-01T19:05:02;26.60;;;19.42;;
51459;SDS011;37534;39.772;2.718;2023-03-01T19:07:28;32.97;;;24.90;;
51459;SDS011;37534;39.772;2.718;2023-03-01T19:09:54;28.33;;;24.30;;
51459;SDS011;37534;39.772;2.718;2023-03-01T19:12:20;47.63;;;33.10;;
51459;SDS011;37534;39.772;2.718;2023-03-01T19:14:46;73.95;;;46.72;;
51459;SDS011;37534;39.772;2.718;2023-03-01T19:17:11;49.53;;;35.33;;
51459;SDS011;37534;39.772;2.718;2023-03-01T19:19:37;27.88;;;22.40;;
51459;SDS011;37534;39.772;2.718;2023-03-01T19:22:03;119.57;;;89.75;;
51459;SDS011;37534;39.772;2.718;2023-03-01T19:24:30;65.88;;;53.05;;
51459;SDS011;37534;39.772;2.718;2023-03-01T19:26:57;41.45;;;31.80;;
51459;SDS011;37534;39.772;2.718;2023-03-01T19:29:22;30.75;;;26.35;;
51459;SDS011;37534;39.772;2.718;2023-03-01T19:31:48;26.60;;;22.52;;
51459;SDS011;37534;39.772;2.718;2023-03-01T19:34:14;23.75;;;19.85;;
51459;SDS011;37534;39.772;2.718;2023-03-01T19:36:41;28.00;;;23.83;;
51459;SDS011;37534;39.772;2.718;2023-03-01T19:39:08;35.35;;;29.25;;
51459;SDS011;37534;39.772;2.718;2023-03-01T19:41:37;29.02;;;24.13;;
51459;SDS011;37534;39.772;2.718;2023-03-01T19:44:03;42.78;;;31.73;;
51459;SDS011;37534;39.772;2.718;2023-03-01T19:46:30;42.33;;;34.30;;
51459;SDS011;37534;39.772;2.718;2023-03-01T19:48:56;50.63;;;37.53;;
51459;SDS011;37534;39.772;2.718;2023-03-01T19:51:24;61.97;;;51.63;;
51459;SDS011;37534;39.772;2.718;2023-03-01T19:53:51;58.17;;;44.60;;
51459;SDS011;37534;39.772;2.718;2023-03-01T19:56:17;34.95;;;28.05;;
51459;SDS011;37534;39.772;2.718;2023-03-01T19:58:43;35.22;;;26.00;;
51459;SDS011;37534;39.772;2.718;2023-03-01T20:01:15;46.08;;;40.05;;
51459;SDS011;37534;39.772;2.718;2023-03-01T20:03:42;26.40;;;23.92;;
51459;SDS011;37534;39.772;2.718;2023-03-01T20:06:12;28.60;;;23.55;;
51459;SDS011;37534;39.772;2.718;2023-03-01T20:08:40;33.08;;;23.92;;
51459;SDS011;37534;39.772;2.718;2023-03-01T20:11:06;18.40;;;16.45;;
51459;SDS011;37534;39.772;2.718;2023-03-01T20:13:34;24.55;;;20.33;;
51459;SDS011;37534;39.772;2.718;2023-03-01T20:16:00;31.50;;;20.90;;
51459;SDS011;37534;39.772;2.718;2023-03-01T20:18:26;37.65;;;25.27;;
51459;SDS011;37534;39.772;2.718;2023-03-01T20:20:53;21.83;;;18.33;;
51459;SDS011;37534;39.772;2.718;2023-03-01T20:23:19;25.50;;;17.35;;
51459;SDS011;37534;39.772;2.718;2023-03-01T20:25:46;22.65;;;17.70;;
